createdAt,value
2022-10-06T00:00:04.279Z,67.24
2022-10-06T00:02:57.939Z,67.33
2022-10-06T00:05:31.898Z,67.71
2022-10-06T00:08:07.060Z,67.78
2022-10-06T00:10:45.012Z,67.76
2022-10-06T00:13:18.018Z,67.94
2022-10-06T00:15:51.365Z,68.05
2022-10-06T00:18:24.986Z,68.18
2022-10-06T00:21:04.716Z,68.35
2022-10-06T00:23:38.156Z,68.61
2022-10-06T00:26:17.772Z,68.80
2022-10-06T00:28:51.490Z,68.93
2022-10-06T00:31:24.885Z,69.03
2022-10-06T00:33:58.004Z,68.83
2022-10-06T00:36:31.347Z,68.84
2022-10-06T00:39:05.297Z,68.72
2022-10-06T00:41:38.746Z,68.69
2022-10-06T00:44:12.326Z,68.79
2022-10-06T00:46:50.177Z,69.56
2022-10-06T00:49:25.178Z,69.87
2022-10-06T00:52:11.574Z,69.12
2022-10-06T00:54:45.571Z,69.34
2022-10-06T00:57:19.374Z,69.62
2022-10-06T00:59:52.388Z,69.89
2022-10-06T01:02:48.753Z,69.91
2022-10-06T01:05:31.178Z,69.82
2022-10-06T01:08:04.686Z,69.50
2022-10-06T01:10:37.700Z,69.44
2022-10-06T01:13:12.187Z,69.38
2022-10-06T01:16:10.764Z,69.31
2022-10-06T01:18:47.549Z,69.31
2022-10-06T01:21:48.310Z,69.08
2022-10-06T01:24:22.122Z,68.91
2022-10-06T01:26:56.651Z,68.77
2022-10-06T01:29:30.229Z,68.73
2022-10-06T01:32:03.138Z,68.68
2022-10-06T01:34:37.252Z,68.62
2022-10-06T01:37:10.945Z,68.45
2022-10-06T01:39:44.910Z,68.37
2022-10-06T01:42:18.486Z,68.37
2022-10-06T01:44:51.388Z,68.34
2022-10-06T01:47:24.045Z,68.35
2022-10-06T01:49:58.292Z,68.30
2022-10-06T01:52:31.256Z,68.32
2022-10-06T01:55:04.367Z,68.61
2022-10-06T01:57:44.691Z,68.76
2022-10-06T02:00:18.452Z,68.89
2022-10-06T02:02:52.032Z,68.76
2022-10-06T02:05:25.581Z,68.90
2022-10-06T02:07:58.959Z,68.84
2022-10-06T02:10:31.760Z,69.14
2022-10-06T02:13:05.628Z,68.99
2022-10-06T02:15:39.670Z,69.03
2022-10-06T02:18:12.902Z,69.12
2022-10-06T02:20:45.804Z,69.37
2022-10-06T02:23:19.761Z,69.32
2022-10-06T02:25:59.817Z,69.10
2022-10-06T02:28:33.827Z,69.39
2022-10-06T02:31:10.189Z,69.42
2022-10-06T02:33:43.538Z,69.43
2022-10-06T02:36:17.852Z,69.50
2022-10-06T02:38:55.173Z,69.48
2022-10-06T02:41:28.704Z,69.51
2022-10-06T02:44:02.171Z,69.50
2022-10-06T02:46:36.120Z,69.46
2022-10-06T02:49:09.571Z,69.68
2022-10-06T02:51:42.835Z,69.58
2022-10-06T02:54:16.265Z,69.88
2022-10-06T02:56:50.589Z,69.55
2022-10-06T02:59:23.808Z,69.49
2022-10-06T03:01:56.828Z,69.36
2022-10-06T03:04:29.877Z,69.43
2022-10-06T03:07:02.874Z,70.39
2022-10-06T03:09:42.596Z,71.09
2022-10-06T03:12:15.995Z,70.28
2022-10-06T03:14:50.609Z,69.92
2022-10-06T03:17:23.839Z,69.76
2022-10-06T03:20:01.436Z,69.68
2022-10-06T03:22:35.309Z,69.54
2022-10-06T03:25:08.834Z,69.47
2022-10-06T03:27:42.124Z,69.47
2022-10-06T03:30:15.914Z,69.28
2022-10-06T03:32:50.288Z,69.19
2022-10-06T03:35:23.598Z,69.36
2022-10-06T03:38:01.115Z,69.33
2022-10-06T03:40:34.685Z,69.31
2022-10-06T03:43:10.949Z,69.38
2022-10-06T03:45:44.390Z,69.40
2022-10-06T03:48:17.356Z,69.51
2022-10-06T03:50:59.486Z,69.46
2022-10-06T03:53:34.175Z,69.44
2022-10-06T03:56:22.196Z,69.54
2022-10-06T03:59:08.886Z,69.53
2022-10-06T04:01:45.540Z,69.40
2022-10-06T04:04:20.435Z,69.42
2022-10-06T04:06:57.487Z,69.53
2022-10-06T04:09:30.466Z,69.54
2022-10-06T04:12:03.579Z,69.61
2022-10-06T04:14:39.195Z,69.66
2022-10-06T04:17:13.510Z,69.73
2022-10-06T04:19:47.366Z,69.82
2022-10-06T04:22:20.179Z,69.90
2022-10-06T04:24:53.169Z,69.87
2022-10-06T04:27:32.185Z,69.77
2022-10-06T04:30:13.160Z,69.68
2022-10-06T04:32:46.551Z,69.82
2022-10-06T04:35:20.986Z,69.77
2022-10-06T04:37:56.637Z,69.64
2022-10-06T04:40:29.940Z,69.74
2022-10-06T04:43:02.997Z,69.86
2022-10-06T04:45:36.488Z,69.64
2022-10-06T04:48:10.254Z,69.57
2022-10-06T04:50:45.000Z,69.39
2022-10-06T04:53:19.512Z,69.30
2022-10-06T04:56:14.017Z,69.24
2022-10-06T04:58:51.461Z,69.10
2022-10-06T05:01:30.095Z,69.05
2022-10-06T05:04:05.519Z,68.89
2022-10-06T05:06:42.820Z,68.73
2022-10-06T05:09:18.338Z,68.48
2022-10-06T05:11:56.803Z,68.40
2022-10-06T05:14:30.867Z,68.26
2022-10-06T05:17:04.741Z,68.19
2022-10-06T05:19:40.275Z,68.17
2022-10-06T05:22:14.427Z,68.01
2022-10-06T05:24:48.187Z,67.89
2022-10-06T05:27:21.979Z,67.71
2022-10-06T05:29:55.681Z,67.64
2022-10-06T05:32:32.519Z,67.49
2022-10-06T05:35:11.688Z,67.40
2022-10-06T05:37:45.202Z,67.41
2022-10-06T05:40:18.877Z,67.36
2022-10-06T05:42:52.946Z,67.29
2022-10-06T05:45:26.149Z,67.30
2022-10-06T05:47:59.818Z,67.26
2022-10-06T05:50:33.106Z,67.26
2022-10-06T05:53:06.991Z,67.40
2022-10-06T05:55:40.421Z,67.29
2022-10-06T05:58:18.413Z,67.32
2022-10-06T06:00:53.381Z,67.36
2022-10-06T06:03:27.081Z,67.23
2022-10-06T06:06:01.025Z,67.12
2022-10-06T06:08:34.858Z,67.03
2022-10-06T06:11:11.879Z,66.84
2022-10-06T06:13:46.002Z,66.48
2022-10-06T06:16:21.335Z,66.38
2022-10-06T06:18:55.392Z,66.21
2022-10-06T06:21:29.577Z,66.09
2022-10-06T06:24:04.659Z,66.09
2022-10-06T06:26:39.499Z,65.97
2022-10-06T06:29:12.498Z,65.85
2022-10-06T06:31:51.408Z,65.63
2022-10-06T06:34:25.718Z,65.48
2022-10-06T06:37:02.355Z,65.23
2022-10-06T06:39:40.930Z,64.91
2022-10-06T06:42:14.984Z,64.60
2022-10-06T06:45:04.068Z,64.35
2022-10-06T06:47:43.599Z,63.93
2022-10-06T06:50:18.597Z,63.15
2022-10-06T06:52:51.949Z,63.00
2022-10-06T06:55:25.339Z,63.00
2022-10-06T06:57:59.986Z,62.63
2022-10-06T07:00:36.171Z,61.74
2022-10-06T07:03:32.811Z,62.02
2022-10-06T07:06:14.298Z,62.29
2022-10-06T07:08:50.270Z,62.12
2022-10-06T07:11:26.130Z,61.95
2022-10-06T07:14:04.115Z,60.95
2022-10-06T07:16:56.447Z,60.86
2022-10-06T07:19:47.009Z,60.73
2022-10-06T07:22:41.851Z,60.05
2022-10-06T07:26:07.812Z,59.55
2022-10-06T07:28:42.842Z,59.69
2022-10-06T07:31:19.812Z,59.99
2022-10-06T07:33:55.072Z,60.16
2022-10-06T07:36:29.387Z,58.85
2022-10-06T07:39:02.813Z,58.81
2022-10-06T07:41:39.128Z,59.11
2022-10-06T07:44:12.813Z,58.80
2022-10-06T07:49:12.488Z,58.46
2022-10-06T07:51:46.056Z,56.99
2022-10-06T07:54:21.913Z,55.23
2022-10-06T07:57:15.143Z,55.11
2022-10-06T07:59:49.258Z,56.73
2022-10-06T08:02:23.616Z,56.68
2022-10-06T08:04:57.011Z,56.64
2022-10-06T08:07:30.214Z,56.85
2022-10-06T08:10:03.395Z,57.40
2022-10-06T08:12:38.162Z,57.31
2022-10-06T08:15:13.717Z,57.17
2022-10-06T08:17:47.007Z,57.27
2022-10-06T08:20:20.802Z,57.41
2022-10-06T08:22:56.075Z,57.34
2022-10-06T08:25:29.569Z,57.16
2022-10-06T08:28:04.622Z,56.94
2022-10-06T08:30:38.553Z,57.10
2022-10-06T08:33:11.795Z,56.85
2022-10-06T08:35:45.580Z,56.67
2022-10-06T08:38:19.044Z,56.57
2022-10-06T08:40:53.138Z,56.59
2022-10-06T08:43:28.407Z,56.49
2022-10-06T08:46:04.351Z,56.32
2022-10-06T08:48:40.425Z,56.37
2022-10-06T08:51:53.414Z,56.06
2022-10-06T08:54:48.510Z,54.99
2022-10-06T08:57:41.770Z,54.73
2022-10-06T09:00:21.124Z,55.63
2022-10-06T09:03:00.431Z,55.66
2022-10-06T09:05:35.682Z,55.91
2022-10-06T09:08:53.091Z,55.54
2022-10-06T09:11:52.909Z,54.32
2022-10-06T09:14:41.031Z,54.96
2022-10-06T09:17:23.118Z,55.13
2022-10-06T09:20:15.687Z,55.16
2022-10-06T09:22:52.124Z,55.02
2022-10-06T09:25:28.874Z,55.17
2022-10-06T09:28:04.534Z,55.08
2022-10-06T09:30:39.732Z,54.70
2022-10-06T09:33:25.979Z,54.72
2022-10-06T09:36:13.657Z,54.56
2022-10-06T09:38:58.204Z,54.30
2022-10-06T09:41:35.903Z,53.91
2022-10-06T09:44:30.448Z,54.00
2022-10-06T09:47:03.835Z,53.95
2022-10-06T09:49:37.367Z,52.77
2022-10-06T09:52:19.276Z,53.22
2022-10-06T09:55:17.684Z,53.61
2022-10-06T09:57:56.702Z,53.65
2022-10-06T10:00:45.010Z,53.78
2022-10-06T10:03:19.032Z,53.26
2022-10-06T10:06:00.386Z,52.19
2022-10-06T10:11:33.897Z,51.10
2022-10-06T10:14:06.580Z,51.18
2022-10-06T10:16:40.442Z,48.71
2022-10-06T10:19:44.202Z,49.84
2022-10-06T10:22:32.887Z,50.19
2022-10-06T10:25:20.549Z,50.77
2022-10-06T10:28:17.755Z,50.72
2022-10-06T10:31:09.942Z,50.53
2022-10-06T10:34:12.411Z,50.65
2022-10-06T10:36:57.801Z,50.86
2022-10-06T10:39:52.003Z,50.93
2022-10-06T10:42:37.699Z,50.50
2022-10-06T10:45:20.649Z,49.43
2022-10-06T10:47:54.851Z,49.92
2022-10-06T10:50:52.429Z,49.89
2022-10-06T10:53:53.443Z,50.06
2022-10-06T10:56:28.226Z,49.43
2022-10-06T10:59:22.733Z,47.11
2022-10-06T11:02:17.317Z,48.73
2022-10-06T11:04:55.051Z,48.28
2022-10-06T11:07:35.947Z,46.02
2022-10-06T11:10:27.203Z,47.97
2022-10-06T11:13:30.030Z,47.97
2022-10-06T11:16:07.407Z,48.57
2022-10-06T11:19:21.803Z,48.50
2022-10-06T11:22:06.562Z,48.03
2022-10-06T11:24:50.322Z,48.05
2022-10-06T11:27:42.249Z,45.29
2022-10-06T11:30:21.720Z,47.21
2022-10-06T11:33:15.653Z,47.83
2022-10-06T11:35:50.581Z,47.66
2022-10-06T11:38:40.857Z,47.54
2022-10-06T11:41:23.878Z,47.10
2022-10-06T11:44:14.389Z,45.93
2022-10-06T11:46:56.066Z,45.71
2022-10-06T11:49:34.841Z,45.43
2022-10-06T11:52:11.936Z,46.76
2022-10-06T11:54:52.673Z,47.01
2022-10-06T11:57:31.302Z,46.92
2022-10-06T12:00:07.445Z,46.58
2022-10-06T12:02:41.990Z,46.61
2022-10-06T12:05:55.301Z,46.53
2022-10-06T12:08:17.429Z,46.01
2022-10-06T12:10:54.029Z,46.17
2022-10-06T12:14:49.543Z,45.99
2022-10-06T12:17:11.330Z,46.03
2022-10-06T12:20:02.359Z,46.02
2022-10-06T12:23:01.279Z,45.78
2022-10-06T12:25:55.892Z,45.66
2022-10-06T12:28:52.750Z,45.56
2022-10-06T12:31:41.910Z,45.07
2022-10-06T12:34:55.152Z,44.98
2022-10-06T12:37:39.582Z,44.83
2022-10-06T12:40:41.947Z,44.91
2022-10-06T12:43:17.736Z,44.92
2022-10-06T12:45:59.600Z,44.79
2022-10-06T12:48:42.052Z,44.73
2022-10-06T12:51:39.430Z,44.56
2022-10-06T12:54:21.062Z,44.43
2022-10-06T12:57:18.687Z,44.29
2022-10-06T12:59:52.201Z,44.27
2022-10-06T13:02:29.842Z,44.15
2022-10-06T13:05:12.155Z,43.93
2022-10-06T13:08:01.824Z,43.54
2022-10-06T13:10:35.453Z,44.01
2022-10-06T13:13:24.790Z,43.86
2022-10-06T13:16:01.225Z,43.89
2022-10-06T13:18:34.866Z,43.57
2022-10-06T13:21:17.075Z,43.48
2022-10-06T13:23:52.696Z,43.17
2022-10-06T13:26:31.731Z,42.92
2022-10-06T13:29:06.510Z,42.90
2022-10-06T13:31:51.909Z,42.53
2022-10-06T13:34:45.234Z,42.45
2022-10-06T13:37:20.480Z,42.17
2022-10-06T13:39:54.178Z,42.28
2022-10-06T13:42:27.918Z,42.04
2022-10-06T13:45:05.390Z,41.87
2022-10-06T13:47:39.728Z,41.59
2022-10-06T13:50:20.184Z,40.79
2022-10-06T13:52:54.613Z,41.13
2022-10-06T13:55:29.455Z,40.84
2022-10-06T13:58:05.153Z,40.67
2022-10-06T14:00:57.185Z,40.13
2022-10-06T14:03:37.627Z,40.00
2022-10-06T14:06:28.654Z,39.99
2022-10-06T14:09:02.658Z,39.67
2022-10-06T14:11:36.222Z,39.73
2022-10-06T14:14:18.474Z,39.33
2022-10-06T14:16:56.254Z,38.61
2022-10-06T14:19:41.759Z,38.34
2022-10-06T14:22:34.574Z,37.77
2022-10-06T14:25:15.992Z,38.43
2022-10-06T14:27:48.921Z,38.85
2022-10-06T14:30:22.090Z,38.77
2022-10-06T14:32:55.413Z,38.80
2022-10-06T14:35:28.528Z,39.05
2022-10-06T14:38:01.769Z,39.28
2022-10-06T14:40:35.049Z,39.27
2022-10-06T14:43:08.191Z,39.33
2022-10-06T14:45:45.873Z,39.51
2022-10-06T14:48:19.413Z,39.64
2022-10-06T14:50:52.771Z,39.73
2022-10-06T14:53:26.202Z,39.77
2022-10-06T14:56:05.863Z,39.89
2022-10-06T14:58:46.457Z,40.21
2022-10-06T15:01:21.826Z,40.71
2022-10-06T15:03:56.079Z,40.86
2022-10-06T15:06:48.554Z,40.84
2022-10-06T15:09:21.599Z,40.99
2022-10-06T15:11:55.490Z,41.20
2022-10-06T15:14:32.719Z,41.37
2022-10-06T15:17:06.308Z,41.80
2022-10-06T15:19:40.823Z,42.06
2022-10-06T15:22:13.852Z,42.52
2022-10-06T15:24:51.319Z,43.12
2022-10-06T15:27:43.742Z,43.67
2022-10-06T15:30:15.806Z,44.04
2022-10-06T15:32:50.205Z,44.07
2022-10-06T15:35:23.158Z,44.59
2022-10-06T15:37:56.452Z,45.13
2022-10-06T15:40:29.667Z,45.84
2022-10-06T15:43:04.107Z,46.13
2022-10-06T15:45:37.365Z,46.54
2022-10-06T15:48:11.927Z,46.91
2022-10-06T15:50:44.728Z,47.46
2022-10-06T15:53:17.998Z,47.91
2022-10-06T15:55:52.046Z,48.86
2022-10-06T15:58:25.138Z,49.51
2022-10-06T16:00:58.172Z,49.23
2022-10-06T16:03:41.223Z,49.47
2022-10-06T16:06:17.805Z,49.65
2022-10-06T16:08:51.171Z,49.81
2022-10-06T16:11:24.360Z,50.07
2022-10-06T16:13:57.258Z,50.39
2022-10-06T16:16:30.260Z,50.64
2022-10-06T16:19:03.450Z,50.99
2022-10-06T16:21:36.205Z,51.13
2022-10-06T16:24:09.618Z,51.50
2022-10-06T16:26:42.840Z,51.85
2022-10-06T16:29:18.832Z,53.89
2022-10-06T16:31:51.720Z,55.11
2022-10-06T16:34:25.827Z,53.70
2022-10-06T16:36:58.481Z,53.33
2022-10-06T16:39:31.456Z,53.41
2022-10-06T16:42:04.541Z,53.56
2022-10-06T16:44:37.728Z,53.76
2022-10-06T16:47:10.948Z,54.00
2022-10-06T16:49:44.097Z,54.33
2022-10-06T16:52:17.122Z,54.67
2022-10-06T16:54:53.129Z,54.90
2022-10-06T16:57:26.067Z,55.20
2022-10-06T17:00:06.469Z,55.39
2022-10-06T17:02:41.323Z,55.39
2022-10-06T17:05:15.057Z,55.34
2022-10-06T17:07:48.362Z,55.72
2022-10-06T17:10:21.997Z,56.01
2022-10-06T17:12:55.727Z,56.39
2022-10-06T17:15:32.765Z,56.61
2022-10-06T17:18:07.543Z,56.85
2022-10-06T17:20:40.715Z,56.86
2022-10-06T17:23:14.704Z,57.07
2022-10-06T17:25:48.079Z,57.47
2022-10-06T17:28:21.103Z,57.58
2022-10-06T17:31:00.010Z,57.55
2022-10-06T17:33:35.266Z,57.72
2022-10-06T17:36:13.828Z,57.82
2022-10-06T17:38:48.676Z,58.02
2022-10-06T17:41:31.544Z,58.50
2022-10-06T17:44:10.391Z,58.26
2022-10-06T17:46:45.994Z,58.34
2022-10-06T17:49:21.364Z,58.55
2022-10-06T17:51:55.828Z,58.48
2022-10-06T17:54:32.546Z,58.71
2022-10-06T17:57:06.328Z,59.73
2022-10-06T17:59:39.677Z,59.25
2022-10-06T18:02:14.270Z,59.32
2022-10-06T18:04:50.631Z,59.50
2022-10-06T18:07:24.620Z,59.11
2022-10-06T18:10:16.272Z,62.58
2022-10-06T18:12:51.359Z,62.25
2022-10-06T18:15:24.708Z,64.18
2022-10-06T18:18:00.103Z,62.50
2022-10-06T18:20:41.801Z,61.83
2022-10-06T18:23:15.406Z,61.71
2022-10-06T18:25:48.668Z,61.75
2022-10-06T18:28:22.326Z,61.67
2022-10-06T18:30:56.107Z,61.64
2022-10-06T18:36:25.005Z,61.91
2022-10-06T18:38:58.532Z,62.11
2022-10-06T18:41:32.013Z,62.02
2022-10-06T18:44:10.376Z,62.15
2022-10-06T18:47:01.925Z,62.36
2022-10-06T18:49:35.398Z,62.68
2022-10-06T18:52:08.801Z,64.13
2022-10-06T18:54:45.363Z,63.53
2022-10-06T18:57:20.059Z,62.90
2022-10-06T19:00:08.956Z,63.37
2022-10-06T19:02:44.928Z,63.03
2022-10-06T19:05:23.558Z,62.90
2022-10-06T19:07:57.446Z,62.94
2022-10-06T19:10:30.745Z,63.04
2022-10-06T19:13:04.283Z,62.96
2022-10-06T19:15:39.717Z,62.86
2022-10-06T19:18:13.193Z,63.07
2022-10-06T19:20:54.045Z,62.97
2022-10-06T19:23:27.273Z,63.12
2022-10-06T19:26:03.605Z,63.28
2022-10-06T19:28:38.348Z,63.23
2022-10-06T19:31:20.862Z,63.27
2022-10-06T19:34:01.215Z,63.33
2022-10-06T19:36:34.738Z,63.38
2022-10-06T19:39:12.170Z,63.45
2022-10-06T19:42:04.503Z,63.70
2022-10-06T19:44:42.928Z,63.96
2022-10-06T19:47:18.455Z,64.12
2022-10-06T19:49:58.835Z,64.01
2022-10-06T19:52:35.332Z,64.26
2022-10-06T19:55:08.679Z,64.39
2022-10-06T19:57:41.983Z,64.46
2022-10-06T20:00:16.701Z,64.38
2022-10-06T20:02:50.125Z,64.31
2022-10-06T20:05:23.342Z,64.34
2022-10-06T20:07:56.617Z,64.42
2022-10-06T20:10:30.019Z,64.45
2022-10-06T20:13:04.421Z,64.52
2022-10-06T20:15:39.548Z,64.63
2022-10-06T20:18:16.653Z,64.56
2022-10-06T20:21:00.876Z,64.70
2022-10-06T20:23:37.158Z,64.68
2022-10-06T20:26:15.546Z,64.88
2022-10-06T20:28:49.923Z,64.99
2022-10-06T20:31:34.974Z,65.01
2022-10-06T20:34:10.827Z,65.30
2022-10-06T20:36:44.252Z,65.13
2022-10-06T20:39:39.813Z,65.35
2022-10-06T20:42:15.181Z,65.38
2022-10-06T20:44:49.762Z,65.24
2022-10-06T20:47:23.890Z,65.50
2022-10-06T20:49:57.344Z,65.60
2022-10-06T20:52:32.194Z,65.65
2022-10-06T20:55:06.766Z,65.74
2022-10-06T20:57:40.256Z,65.71
2022-10-06T21:00:14.955Z,65.63
2022-10-06T21:02:48.664Z,65.79
2022-10-06T21:05:21.581Z,65.80
2022-10-06T21:07:55.102Z,66.05
2022-10-06T21:10:28.233Z,66.18
2022-10-06T21:13:02.038Z,66.24
2022-10-06T21:15:35.422Z,66.18
2022-10-06T21:18:09.307Z,66.20
2022-10-06T21:20:45.198Z,66.01
2022-10-06T21:23:18.774Z,66.11
2022-10-06T21:25:52.017Z,66.19
2022-10-06T21:28:26.030Z,67.22
2022-10-06T21:31:04.825Z,69.57
2022-10-06T21:33:42.535Z,68.04
2022-10-06T21:36:17.828Z,67.33
2022-10-06T21:38:53.463Z,67.11
2022-10-06T21:41:37.414Z,66.96
2022-10-06T21:44:18.163Z,67.14
2022-10-06T21:46:53.372Z,67.23
2022-10-06T21:49:29.013Z,67.25
2022-10-06T21:52:06.103Z,67.40
2022-10-06T21:54:40.364Z,69.13
2022-10-06T21:57:16.109Z,68.32
2022-10-06T21:59:50.585Z,68.05
2022-10-06T22:02:24.247Z,67.79
2022-10-06T22:05:00.044Z,67.55
2022-10-06T22:07:34.553Z,67.51
2022-10-06T22:10:10.313Z,67.55
2022-10-06T22:12:44.823Z,67.37
2022-10-06T22:15:21.834Z,67.39
2022-10-06T22:18:01.633Z,67.22
2022-10-06T22:20:35.876Z,67.14
2022-10-06T22:23:09.670Z,67.04
2022-10-06T22:25:43.164Z,67.10
2022-10-06T22:28:16.733Z,67.05
2022-10-06T22:30:50.504Z,67.09
2022-10-06T22:33:23.734Z,67.08
2022-10-06T22:35:56.519Z,67.04
2022-10-06T22:38:30.140Z,67.18
2022-10-06T22:41:08.013Z,68.71
2022-10-06T22:43:41.884Z,68.45
2022-10-06T22:46:16.203Z,67.96
2022-10-06T22:48:49.774Z,67.94
2022-10-06T22:51:23.796Z,68.12
2022-10-06T22:53:58.847Z,68.37
2022-10-06T22:56:34.206Z,68.35
2022-10-06T22:59:07.684Z,68.37
2022-10-06T23:01:41.250Z,68.08
2022-10-06T23:04:18.233Z,68.14
2022-10-06T23:06:52.323Z,68.67
2022-10-06T23:09:26.152Z,68.15
2022-10-06T23:11:59.571Z,68.43
2022-10-06T23:14:32.745Z,68.53
2022-10-06T23:17:06.342Z,68.68
2022-10-06T23:19:44.913Z,68.84
2022-10-06T23:22:21.644Z,68.86
2022-10-06T23:24:55.157Z,68.76
2022-10-06T23:27:29.243Z,68.74
2022-10-06T23:30:03.182Z,68.85
2022-10-06T23:32:38.155Z,68.96
2022-10-06T23:35:12.701Z,68.93
2022-10-06T23:37:48.134Z,68.99
2022-10-06T23:40:22.887Z,69.13
2022-10-06T23:42:59.742Z,69.22
2022-10-06T23:45:33.899Z,69.27
2022-10-06T23:48:07.204Z,69.22
2022-10-06T23:50:41.053Z,69.19
2022-10-06T23:53:15.014Z,69.34
2022-10-06T23:55:49.384Z,69.24
2022-10-06T23:58:23.907Z,69.31
